createdAt,value
2022-09-24T03:02:41.575Z,6.55
2022-09-24T03:05:08.484Z,6.57
2022-09-24T03:07:34.870Z,8.43
2022-09-24T03:10:01.325Z,6.35
2022-09-24T03:12:27.732Z,7.28
2022-09-24T03:14:54.164Z,6.47
2022-09-24T03:17:20.643Z,6.55
2022-09-24T03:19:47.078Z,6.78
2022-09-24T03:22:13.524Z,6.47
2022-09-24T03:24:40.131Z,6.65
2022-09-24T03:27:06.571Z,6.68
2022-09-24T03:29:51.276Z,6.43
2022-09-24T03:32:17.705Z,7.28
2022-09-24T03:34:44.082Z,6.53
2022-09-24T03:37:10.511Z,6.75
2022-09-24T03:39:36.911Z,6.50
2022-09-24T03:42:03.359Z,6.70
2022-09-24T03:44:29.838Z,6.90
2022-09-24T03:46:57.029Z,6.75
2022-09-24T03:49:23.644Z,7.20
2022-09-24T03:51:50.371Z,6.63
2022-09-24T03:54:16.974Z,6.57
2022-09-24T03:56:43.459Z,6.63
2022-09-24T03:59:12.993Z,6.30
2022-09-24T04:01:39.509Z,6.93
2022-09-24T04:04:06.118Z,6.68
2022-09-24T04:06:32.576Z,7.25
2022-09-24T04:09:00.354Z,6.43
2022-09-24T04:11:27.036Z,6.05
2022-09-24T04:13:53.483Z,6.28
2022-09-24T04:16:19.962Z,6.68
2022-09-24T04:18:47.963Z,6.45
2022-09-24T04:21:14.457Z,6.47
2022-09-24T04:23:40.869Z,5.82
2022-09-24T04:26:07.315Z,7.13
2022-09-24T04:28:33.780Z,6.90
2022-09-24T04:31:00.322Z,9.23
2022-09-24T04:33:27.214Z,12.55
2022-09-24T04:35:53.810Z,7.65
2022-09-24T04:38:21.353Z,7.10
2022-09-24T04:40:48.270Z,6.60
2022-09-24T04:43:14.746Z,6.55
2022-09-24T04:45:46.409Z,6.35
2022-09-24T04:50:43.405Z,6.78
2022-09-24T04:53:12.406Z,7.07
2022-09-24T04:55:39.366Z,7.22
2022-09-24T04:58:05.898Z,7.20
2022-09-24T05:00:33.415Z,7.38
2022-09-24T05:03:03.790Z,7.32
2022-09-24T05:05:32.237Z,6.72
2022-09-24T05:07:59.517Z,7.05
2022-09-24T05:10:26.306Z,7.72
2022-09-24T05:12:53.045Z,6.68
2022-09-24T05:15:19.962Z,7.10
2022-09-24T05:17:46.467Z,7.00
2022-09-24T05:20:13.325Z,8.65
2022-09-24T05:22:46.734Z,6.93
2022-09-24T05:25:14.838Z,6.88
2022-09-24T05:27:45.678Z,6.63
2022-09-24T05:30:13.067Z,6.90
2022-09-24T05:32:40.078Z,6.70
2022-09-24T05:35:08.277Z,6.40
2022-09-24T05:37:36.298Z,6.53
2022-09-24T05:40:23.880Z,7.25
2022-09-24T05:42:50.914Z,6.88
2022-09-24T05:45:18.376Z,6.78
2022-09-24T05:47:46.051Z,6.65
2022-09-24T05:50:15.361Z,6.80
2022-09-24T05:52:42.428Z,7.85
2022-09-24T05:55:10.519Z,7.25
2022-09-24T05:57:36.953Z,6.70
2022-09-24T06:00:05.236Z,6.93
2022-09-24T06:02:31.832Z,7.18
2022-09-24T06:04:58.327Z,7.35
2022-09-24T06:07:24.766Z,7.13
2022-09-24T06:09:51.480Z,7.57
2022-09-24T06:12:18.005Z,7.15
2022-09-24T06:14:44.380Z,7.35
2022-09-24T06:17:10.979Z,6.70
2022-09-24T06:19:37.529Z,7.18
2022-09-24T06:22:03.969Z,6.72
2022-09-24T06:24:30.562Z,7.32
2022-09-24T06:26:58.268Z,7.32
2022-09-24T06:29:24.736Z,6.88
2022-09-24T06:31:53.262Z,7.85
2022-09-24T06:34:19.803Z,7.57
2022-09-24T06:36:46.379Z,6.78
2022-09-24T06:39:12.911Z,6.82
2022-09-24T06:41:39.345Z,6.95
2022-09-24T06:44:05.806Z,6.80
2022-09-24T06:46:32.285Z,6.88
2022-09-24T06:48:58.786Z,6.85
2022-09-24T06:51:25.281Z,6.45
2022-09-24T06:53:52.603Z,6.47
2022-09-24T06:56:19.581Z,6.50
2022-09-24T06:58:46.535Z,6.82
2022-09-24T07:01:13.180Z,6.85
2022-09-24T07:03:40.225Z,7.25
2022-09-24T07:06:07.236Z,7.15
2022-09-24T07:08:34.924Z,7.18
2022-09-24T07:11:02.199Z,6.78
2022-09-24T07:13:28.746Z,7.03
2022-09-24T07:15:55.297Z,7.32
2022-09-24T07:18:22.111Z,7.00
2022-09-24T07:20:56.154Z,8.90
2022-09-24T07:23:23.634Z,9.82
2022-09-24T07:25:51.140Z,10.55
2022-09-24T07:28:18.862Z,8.23
2022-09-24T07:30:45.315Z,6.85
2022-09-24T07:33:11.739Z,7.15
2022-09-24T07:35:39.241Z,7.07
2022-09-24T07:38:14.167Z,7.07
2022-09-24T07:40:40.705Z,6.88
2022-09-24T07:43:12.300Z,8.00
2022-09-24T07:45:38.964Z,6.90
2022-09-24T07:48:05.694Z,7.60
2022-09-24T07:50:33.962Z,8.43
2022-09-24T07:53:00.675Z,7.38
2022-09-24T07:55:27.744Z,7.15
2022-09-24T07:57:55.454Z,6.85
2022-09-24T08:00:23.446Z,7.05
2022-09-24T08:02:50.440Z,6.72
2022-09-24T08:05:17.987Z,6.47
2022-09-24T08:07:52.922Z,7.88
2022-09-24T08:10:19.502Z,7.65
2022-09-24T08:12:45.982Z,7.38
2022-09-24T08:15:12.442Z,7.30
2022-09-24T08:17:38.877Z,7.28
2022-09-24T08:20:05.765Z,6.50
2022-09-24T08:22:33.540Z,7.10
2022-09-24T08:25:00.378Z,7.05
2022-09-24T08:27:27.931Z,7.15
2022-09-24T08:29:54.377Z,7.50
2022-09-24T08:32:20.814Z,7.35
2022-09-24T08:34:47.263Z,7.40
2022-09-24T08:37:13.856Z,6.40
2022-09-24T08:39:40.364Z,7.05
2022-09-24T08:42:29.196Z,7.18
2022-09-24T08:45:16.341Z,6.97
2022-09-24T08:48:00.840Z,6.30
2022-09-24T08:50:30.756Z,6.72
2022-09-24T08:53:06.908Z,6.95
2022-09-24T08:55:35.733Z,7.88
2022-09-24T08:58:19.228Z,7.10
2022-09-24T09:01:05.074Z,7.95
2022-09-24T09:03:37.380Z,6.82
2022-09-24T09:06:09.554Z,6.97
2022-09-24T09:09:13.369Z,7.05
2022-09-24T09:11:43.620Z,6.70
2022-09-24T09:14:28.076Z,6.88
2022-09-24T09:17:06.675Z,5.90
2022-09-24T09:19:34.569Z,7.60
2022-09-24T09:22:14.488Z,6.82
2022-09-24T09:24:44.387Z,6.57
2022-09-24T09:27:14.980Z,7.15
2022-09-24T09:29:44.313Z,7.00
2022-09-24T09:32:40.140Z,6.88
2022-09-24T09:35:19.518Z,6.32
2022-09-24T09:38:19.548Z,6.57
2022-09-24T09:40:57.416Z,6.15
2022-09-24T09:43:25.331Z,6.18
2022-09-24T09:46:13.834Z,6.15
2022-09-24T09:48:54.395Z,6.70
2022-09-24T09:51:25.855Z,6.40
2022-09-24T09:54:00.959Z,7.03
2022-09-24T09:56:34.236Z,6.47
2022-09-24T09:59:12.527Z,6.18
2022-09-24T10:01:41.856Z,6.53
2022-09-24T10:04:49.114Z,6.28
2022-09-24T10:07:18.727Z,6.30
2022-09-24T10:09:46.668Z,5.80
2022-09-24T10:12:17.416Z,6.03
2022-09-24T10:14:44.560Z,6.00
2022-09-24T10:17:16.156Z,5.38
2022-09-24T10:22:21.511Z,5.78
2022-09-24T10:24:49.805Z,5.78
2022-09-24T10:27:37.276Z,6.03
2022-09-24T10:30:32.132Z,5.82
2022-09-24T10:33:01.021Z,5.22
2022-09-24T10:35:35.869Z,5.32
2022-09-24T10:38:15.281Z,5.20
2022-09-24T10:40:42.085Z,6.35
2022-09-24T10:43:17.519Z,5.80
2022-09-24T10:45:56.069Z,5.40
2022-09-24T10:48:34.615Z,6.63
2022-09-24T10:51:28.795Z,6.30
2022-09-24T10:54:17.358Z,8.00
2022-09-24T10:56:49.497Z,5.63
2022-09-24T10:59:51.337Z,6.13
2022-09-24T11:02:45.073Z,5.22
2022-09-24T11:05:22.593Z,5.63
2022-09-24T11:07:55.109Z,5.40
2022-09-24T11:10:31.548Z,6.45
2022-09-24T11:13:20.724Z,5.10
2022-09-24T11:15:56.266Z,5.43
2022-09-24T11:18:28.525Z,9.18
2022-09-24T11:21:03.225Z,5.32
2022-09-24T11:23:49.549Z,5.72
2022-09-24T11:26:46.955Z,5.13
2022-09-24T11:29:37.173Z,6.38
2022-09-24T11:32:31.377Z,5.13
2022-09-24T11:35:29.952Z,5.15
2022-09-24T11:38:01.191Z,5.32
2022-09-24T11:40:34.207Z,5.38
2022-09-24T11:43:18.408Z,4.68
2022-09-24T11:45:44.808Z,4.85
2022-09-24T11:48:24.177Z,5.40
2022-09-24T11:50:59.451Z,5.00
2022-09-24T11:53:28.903Z,5.28
2022-09-24T11:56:02.035Z,5.22
2022-09-24T11:58:37.047Z,4.80
2022-09-24T12:01:12.356Z,6.00
2022-09-24T12:04:03.966Z,5.50
2022-09-24T12:06:35.756Z,6.00
2022-09-24T12:09:27.245Z,6.10
2022-09-24T12:11:58.639Z,5.82
2022-09-24T12:14:29.955Z,6.00
2022-09-24T12:17:03.342Z,5.30
2022-09-24T12:19:51.274Z,5.13
2022-09-24T12:22:20.477Z,5.75
2022-09-24T12:24:54.500Z,5.45
2022-09-24T12:27:38.280Z,4.85
2022-09-24T12:31:11.922Z,5.15
2022-09-24T12:33:45.662Z,5.65
2022-09-24T12:36:32.386Z,5.10
2022-09-24T12:39:06.561Z,5.40
2022-09-24T12:41:35.483Z,8.10
2022-09-24T12:44:10.781Z,6.53
2022-09-24T12:46:40.269Z,5.75
2022-09-24T12:49:25.244Z,5.50
2022-09-24T12:51:57.416Z,5.63
2022-09-24T12:54:28.454Z,4.70
2022-09-24T12:57:08.243Z,5.72
2022-09-24T12:59:34.753Z,6.05
2022-09-24T13:02:15.957Z,5.97
2022-09-24T13:05:02.558Z,7.70
2022-09-24T13:07:40.654Z,5.93
2022-09-24T13:10:17.437Z,6.03
2022-09-24T13:12:45.347Z,5.18
2022-09-24T13:15:28.333Z,5.60
2022-09-24T13:18:13.662Z,5.72
2022-09-24T13:20:47.635Z,6.05
2022-09-24T13:23:19.506Z,5.95
2022-09-24T13:25:57.683Z,5.90
2022-09-24T13:28:38.213Z,5.72
2022-09-24T13:31:20.147Z,5.95
2022-09-24T13:33:50.609Z,5.83
2022-09-24T13:36:23.807Z,5.70
2022-09-24T13:38:57.636Z,5.35
2022-09-24T13:42:01.799Z,5.38
2022-09-24T13:45:06.168Z,5.18
2022-09-24T13:47:51.709Z,5.22
2022-09-24T13:50:24.214Z,4.70
2022-09-24T13:53:23.820Z,5.32
2022-09-24T13:55:54.632Z,4.85
2022-09-24T13:58:34.353Z,5.50
2022-09-24T14:01:30.059Z,6.00
2022-09-24T14:04:06.351Z,5.00
2022-09-24T14:06:40.374Z,5.70
2022-09-24T14:09:15.896Z,5.30
2022-09-24T14:11:50.625Z,5.32
2022-09-24T14:14:19.804Z,6.40
2022-09-24T14:16:46.442Z,6.65
2022-09-24T14:19:15.369Z,5.70
2022-09-24T14:21:54.291Z,6.10
2022-09-24T14:25:05.824Z,5.97
2022-09-24T14:27:36.801Z,5.97
2022-09-24T14:30:07.259Z,6.05
2022-09-24T14:32:40.459Z,5.10
2022-09-24T14:35:18.488Z,5.57
2022-09-24T14:37:52.445Z,5.88
2022-09-24T14:40:23.037Z,5.30
2022-09-24T14:42:55.153Z,6.10
2022-09-24T14:45:37.716Z,5.47
2022-09-24T14:48:06.632Z,5.35
2022-09-24T14:50:38.693Z,4.95
2022-09-24T14:53:23.796Z,5.40
2022-09-24T14:55:50.705Z,5.45
2022-09-24T14:58:29.832Z,5.03
2022-09-24T15:01:01.971Z,5.68
2022-09-24T15:03:53.187Z,5.57
2022-09-24T15:06:25.589Z,5.28
2022-09-24T15:08:57.373Z,5.45
2022-09-24T15:11:29.196Z,5.97
2022-09-24T15:14:27.339Z,5.97
2022-09-24T15:16:54.810Z,5.38
2022-09-24T15:19:28.867Z,6.40
2022-09-24T15:21:57.227Z,6.35
2022-09-24T15:24:24.948Z,5.40
2022-09-24T15:27:03.170Z,5.28
2022-09-24T15:29:30.042Z,6.13
2022-09-24T15:31:57.761Z,6.20
2022-09-24T15:34:24.686Z,6.95
2022-09-24T15:36:59.019Z,7.32
2022-09-24T15:39:27.489Z,7.05
2022-09-24T15:41:54.128Z,6.57
2022-09-24T15:44:28.316Z,6.22
2022-09-24T15:46:55.118Z,7.30
2022-09-24T15:49:22.949Z,7.63
2022-09-24T15:51:49.337Z,6.47
2022-09-24T15:54:15.869Z,7.28
2022-09-24T15:56:44.338Z,6.30
2022-09-24T15:59:14.413Z,6.60
2022-09-24T16:01:42.482Z,6.75
2022-09-24T16:04:12.068Z,5.43
2022-09-24T16:06:38.804Z,5.55
2022-09-24T16:09:05.332Z,5.65
2022-09-24T16:11:32.042Z,5.93
2022-09-24T16:13:58.485Z,5.68
2022-09-24T16:16:25.199Z,5.65
2022-09-24T16:18:52.485Z,4.95
2022-09-24T16:21:19.178Z,5.32
2022-09-24T16:23:45.636Z,6.47
2022-09-24T16:26:12.042Z,5.93
2022-09-24T16:28:38.515Z,5.18
2022-09-24T16:31:07.143Z,5.65
2022-09-24T16:33:38.952Z,6.20
2022-09-24T16:36:06.574Z,5.70
2022-09-24T16:38:37.617Z,5.63
2022-09-24T16:41:06.041Z,5.95
2022-09-24T16:43:33.291Z,6.28
2022-09-24T16:46:01.672Z,6.90
2022-09-24T16:48:28.126Z,6.55
2022-09-24T16:50:55.390Z,6.65
2022-09-24T16:53:21.831Z,6.00
2022-09-24T16:55:50.356Z,5.35
2022-09-24T16:58:16.833Z,5.65
2022-09-24T17:00:43.626Z,5.88
2022-09-24T17:03:11.295Z,6.13
2022-09-24T17:05:40.543Z,7.10
2022-09-24T17:08:06.982Z,6.30
2022-09-24T17:10:33.422Z,5.80
2022-09-24T17:13:01.614Z,6.97
2022-09-24T17:15:28.213Z,6.15
2022-09-24T17:17:54.705Z,5.88
2022-09-24T17:20:21.295Z,5.85
2022-09-24T17:22:48.501Z,6.63
2022-09-24T17:25:15.348Z,6.03
2022-09-24T17:27:41.777Z,6.05
2022-09-24T17:30:09.602Z,6.38
2022-09-24T17:32:36.219Z,6.00
2022-09-24T17:35:02.704Z,6.28
2022-09-24T17:37:29.137Z,5.68
2022-09-24T17:39:55.816Z,5.85
2022-09-24T17:42:22.252Z,7.03
2022-09-24T17:44:48.666Z,7.10
2022-09-24T17:47:15.240Z,6.40
2022-09-24T17:49:42.535Z,7.10
2022-09-24T17:52:09.038Z,7.18
2022-09-24T17:54:35.974Z,7.18
2022-09-24T17:57:02.401Z,8.02
2022-09-24T17:59:28.946Z,8.13
2022-09-24T18:01:55.631Z,9.00
2022-09-24T18:04:22.933Z,9.02
2022-09-24T18:06:50.011Z,9.32
2022-09-24T18:09:18.028Z,8.90
2022-09-24T18:11:49.573Z,9.18
2022-09-24T18:14:20.363Z,9.18
2022-09-24T18:16:46.961Z,9.23
2022-09-24T18:19:15.644Z,8.68
2022-09-24T18:21:42.443Z,9.23
2022-09-24T18:24:10.279Z,9.38
2022-09-24T18:26:39.888Z,8.48
2022-09-24T18:29:17.641Z,8.48
2022-09-24T18:31:44.843Z,9.95
2022-09-24T18:34:14.614Z,9.13
2022-09-24T18:36:42.501Z,9.52
2022-09-24T18:39:13.751Z,8.02
2022-09-24T18:41:41.636Z,9.25
2022-09-24T18:44:09.052Z,8.13
2022-09-24T18:46:35.660Z,9.05
2022-09-24T18:49:02.562Z,8.55
2022-09-24T18:51:34.610Z,9.15
2022-09-24T18:54:04.376Z,8.32
2022-09-24T18:56:31.445Z,8.20
2022-09-24T18:59:07.286Z,8.32
2022-09-24T19:01:37.026Z,8.23
2022-09-24T19:04:04.085Z,8.18
2022-09-24T19:06:31.458Z,8.32
2022-09-24T19:08:58.111Z,7.60
2022-09-24T19:11:24.609Z,8.27
2022-09-24T19:13:53.379Z,7.90
2022-09-24T19:16:23.650Z,7.75
2022-09-24T19:18:51.292Z,8.50
2022-09-24T19:21:17.842Z,8.65
2022-09-24T19:23:52.652Z,8.23
2022-09-24T19:26:24.961Z,8.10
2022-09-24T19:28:52.245Z,7.80
2022-09-24T19:31:21.910Z,8.18
2022-09-24T19:33:50.012Z,7.97
2022-09-24T19:36:17.309Z,8.68
2022-09-24T19:38:43.883Z,7.75
2022-09-24T19:41:26.197Z,8.73
2022-09-24T19:43:54.658Z,8.10
2022-09-24T19:46:25.766Z,7.47
2022-09-24T19:48:53.738Z,7.40
2022-09-24T19:51:24.818Z,7.57
2022-09-24T19:53:54.285Z,7.22
2022-09-24T19:56:22.572Z,7.28
2022-09-24T19:58:52.670Z,7.93
2022-09-24T20:01:21.213Z,8.18
2022-09-24T20:03:48.346Z,8.75
2022-09-24T20:06:20.702Z,8.00
2022-09-24T20:08:47.264Z,7.72
2022-09-24T20:11:20.422Z,8.77
2022-09-24T20:13:51.941Z,8.50
2022-09-24T20:16:20.567Z,9.13
2022-09-24T20:18:51.896Z,8.90
2022-09-24T20:21:19.450Z,7.85
2022-09-24T20:23:47.266Z,8.80
2022-09-24T20:26:33.769Z,9.18
2022-09-24T20:29:00.334Z,9.23
2022-09-24T20:31:26.899Z,9.23
2022-09-24T20:33:53.466Z,9.45
2022-09-24T20:36:24.433Z,9.20
2022-09-24T20:38:51.518Z,8.85
2022-09-24T20:41:20.514Z,9.57
2022-09-24T20:43:47.335Z,9.35
2022-09-24T20:46:25.020Z,9.38
2022-09-24T20:48:52.923Z,9.43
2022-09-24T20:51:21.315Z,10.32
2022-09-24T20:53:49.601Z,10.20
2022-09-24T20:56:17.982Z,9.75
2022-09-24T20:58:44.952Z,10.40
2022-09-24T21:01:11.525Z,10.63
2022-09-24T21:03:45.564Z,10.18
2022-09-24T21:06:14.865Z,11.07
2022-09-24T21:08:43.288Z,11.82
2022-09-24T21:11:12.699Z,10.98
2022-09-24T21:13:41.667Z,12.13
2022-09-24T21:16:09.493Z,11.95
2022-09-24T21:18:40.208Z,12.32
2022-09-24T21:21:11.277Z,11.60
2022-09-24T21:23:39.630Z,12.55
2022-09-24T21:26:16.029Z,12.00
2022-09-24T21:28:46.572Z,11.10
2022-09-24T21:31:19.334Z,11.23
2022-09-24T21:33:47.498Z,11.57
2022-09-24T21:36:18.558Z,12.50
2022-09-24T21:39:13.034Z,12.48
2022-09-24T21:41:39.525Z,12.07
2022-09-24T21:44:08.351Z,13.27
2022-09-24T21:46:35.638Z,14.63
2022-09-24T21:49:02.758Z,13.18
2022-09-24T21:51:30.138Z,13.60
2022-09-24T21:54:05.818Z,13.93
2022-09-24T21:56:34.958Z,14.45
2022-09-24T21:59:02.225Z,13.02
